Карточка аэропорта UMKK

Внимание!
Информация на этой странице в стадии наполнения.
Если вы не увидели какой-то информации, или заметили неточность - пожалуйста сообщите нам!
Спасибо!
Команда RU-STAFF
Название аэропортаХраброво
Название аэропорта (англ.)Khrabrovo
Превышение43 ft. (13.1 m.)
Координаты54°53.4', 20°35.55'
Высота перехода4000ft
Эшелон переходаFL50 (QNH>=1013hPa); FL60 (QNH<1013hPa); FL50 (QNH<977hPa);
Коды ответчика6620-6637
Зона ОрВДКалининград РПИ (UMKK)
Данные METARUMKK 010600Z 26009MPS 9999 BKN015CB 04/03 Q0994 R24/290095 NOSIG RMK QFE744/0993
Проноз погоды (TAF)UMKK 010452Z 0106/0206 26010G15MPS 6000 -SHRASN BKN010 BKN016CB TEMPO 0106/0109 28013G20MPS 0600 +SHSNRA BKN003 BKN010CB BECMG 0109/0111 BKN016CB TEMPO 0112/0119 1200 SHSNRA BKN004 BKN012CB BECMG 0122/0124 25006G12MPS BKN010CB TEMPO 0200/0206 VRB01MPS BKN005 BKN010CB
NOTAMshow/hide NOTAM
AWOS   TABLE

Информация о ВПП

ВПП Длина ВПП (м.) Покрытие Курс ВПП Частота ILS
063350Асфальтобетон60110.3
243350Асфальтобетон240109.5

Диспетчерские позиции

Позывной Наименование органа УВД Частота
UMKK_TWRКалининград-Вышка127.2
UMKK_APPКалининград-Подход126.0



Спутниковое изображение